createdAt,value
2023-03-28T00:00:11.045Z,80.29
2023-03-28T00:01:13.615Z,80.48
2023-03-28T00:02:15.709Z,81.09
2023-03-28T00:03:22.837Z,80.80
2023-03-28T00:04:25.193Z,80.25
2023-03-28T00:05:28.304Z,79.84
2023-03-28T00:06:31.796Z,79.98
2023-03-28T00:07:33.831Z,79.74
2023-03-28T00:08:39.729Z,79.25
2023-03-28T00:09:41.911Z,79.66
2023-03-28T00:10:44.976Z,79.59
2023-03-28T00:11:47.513Z,78.58
2023-03-28T00:12:49.585Z,79.49
2023-03-28T00:13:58.128Z,79.24
2023-03-28T00:15:01.211Z,80.48
2023-03-28T00:16:09.561Z,80.84
2023-03-28T00:17:11.552Z,81.15
2023-03-28T00:18:13.607Z,81.51
2023-03-28T00:19:19.062Z,80.98
2023-03-28T00:20:21.297Z,81.47
2023-03-28T00:21:29.518Z,82.13
2023-03-28T00:22:32.167Z,82.09
2023-03-28T00:23:36.308Z,82.83
2023-03-28T00:24:39.144Z,82.51
2023-03-28T00:25:42.205Z,82.43
2023-03-28T00:26:45.575Z,82.29
2023-03-28T00:27:47.506Z,82.74
2023-03-28T00:28:49.442Z,81.93
2023-03-28T00:29:51.774Z,82.46
2023-03-28T00:30:53.769Z,82.90
2023-03-28T00:31:55.873Z,82.53
2023-03-28T00:32:57.858Z,83.39
2023-03-28T00:33:59.817Z,83.11
2023-03-28T00:35:01.812Z,82.73
2023-03-28T00:36:04.262Z,82.73
2023-03-28T00:37:06.182Z,82.64
2023-03-28T00:38:08.127Z,82.64
2023-03-28T00:39:10.881Z,82.87
2023-03-28T00:40:14.143Z,81.91
2023-03-28T00:41:18.767Z,81.80
2023-03-28T00:42:23.109Z,81.01
2023-03-28T00:43:46.255Z,80.85
2023-03-28T00:44:54.601Z,79.27
2023-03-28T00:46:06.520Z,79.33
2023-03-28T00:47:26.580Z,80.52
2023-03-28T00:48:28.699Z,80.70
2023-03-28T00:49:30.757Z,79.55
2023-03-28T00:50:39.753Z,79.18
2023-03-28T00:51:51.066Z,78.93
2023-03-28T00:53:02.589Z,78.31
2023-03-28T00:54:08.099Z,78.14
2023-03-28T00:55:19.154Z,78.22
2023-03-28T00:56:23.606Z,78.51
2023-03-28T00:57:26.795Z,79.99
2023-03-28T00:58:34.030Z,79.78
2023-03-28T00:59:37.910Z,81.43
2023-03-28T01:00:47.320Z,82.53
2023-03-28T01:01:49.401Z,83.25
2023-03-28T01:02:57.290Z,83.39
2023-03-28T01:04:03.325Z,83.81
2023-03-28T01:05:06.348Z,83.82
2023-03-28T01:06:09.722Z,84.38
2023-03-28T01:07:11.762Z,85.61
2023-03-28T01:08:20.898Z,85.65
2023-03-28T01:09:27.356Z,85.24
2023-03-28T01:10:31.684Z,85.56
2023-03-28T01:11:37.140Z,85.39
2023-03-28T01:12:42.381Z,84.63
2023-03-28T01:13:51.184Z,86.19
2023-03-28T01:14:53.872Z,85.86
2023-03-28T01:15:56.705Z,85.83
2023-03-28T01:16:58.674Z,85.35
2023-03-28T01:18:10.868Z,84.68
2023-03-28T01:19:36.382Z,84.52
2023-03-28T01:21:09.701Z,85.10
2023-03-28T01:22:36.159Z,84.81
2023-03-28T01:24:14.977Z,85.17
2023-03-28T01:25:55.716Z,85.47
2023-03-28T01:27:11.670Z,84.63
2023-03-28T01:28:44.768Z,84.87
2023-03-28T01:30:11.281Z,85.61
2023-03-28T01:31:16.444Z,84.91
2023-03-28T01:32:21.018Z,84.55
2023-03-28T01:33:50.185Z,84.85
2023-03-28T01:35:48.566Z,84.59
2023-03-28T01:36:59.800Z,83.23
2023-03-28T01:38:28.093Z,82.64
2023-03-28T01:39:57.347Z,81.38
2023-03-28T01:41:20.254Z,81.54
2023-03-28T01:43:00.841Z,81.10
2023-03-28T01:44:17.760Z,80.68
2023-03-28T01:46:01.105Z,79.55
2023-03-28T01:47:30.681Z,78.63
2023-03-28T01:49:01.339Z,79.85
2023-03-28T01:50:23.524Z,79.18
2023-03-28T01:51:31.217Z,78.41
2023-03-28T01:52:39.040Z,77.88
2023-03-28T01:53:56.438Z,77.47
2023-03-28T01:55:24.549Z,77.20
2023-03-28T01:56:39.859Z,77.97
2023-03-28T01:57:53.276Z,77.18
2023-03-28T01:59:04.523Z,76.87
2023-03-28T02:00:13.210Z,77.68
2023-03-28T02:01:23.306Z,76.02
2023-03-28T02:02:39.625Z,76.39
2023-03-28T02:03:48.121Z,76.31
2023-03-28T02:04:52.626Z,75.95
2023-03-28T02:06:04.597Z,76.23
2023-03-28T02:07:09.278Z,75.92
2023-03-28T02:08:14.172Z,76.19
2023-03-28T02:09:20.142Z,75.94
2023-03-28T02:10:26.362Z,76.41
2023-03-28T02:11:31.621Z,74.87
2023-03-28T02:12:41.703Z,76.06
2023-03-28T02:13:51.519Z,75.77
2023-03-28T02:14:57.066Z,75.73
2023-03-28T02:16:02.745Z,75.46
2023-03-28T02:17:16.143Z,75.21
2023-03-28T02:18:24.247Z,73.99
2023-03-28T02:19:27.244Z,74.77
2023-03-28T02:20:33.835Z,74.44
2023-03-28T02:21:51.701Z,74.28
2023-03-28T02:23:03.311Z,75.08
2023-03-28T02:24:05.935Z,74.97
2023-03-28T02:25:08.631Z,73.85
2023-03-28T02:26:12.589Z,73.90
2023-03-28T02:27:14.609Z,73.90
2023-03-28T02:28:19.925Z,73.99
2023-03-28T02:29:23.008Z,73.96
2023-03-28T02:30:25.316Z,74.11
2023-03-28T02:31:27.463Z,75.36
2023-03-28T02:32:34.257Z,74.03
2023-03-28T02:33:48.678Z,75.40
2023-03-28T02:34:53.821Z,75.50
2023-03-28T02:36:09.292Z,75.46
2023-03-28T02:37:36.505Z,75.30
2023-03-28T02:38:56.664Z,74.21
2023-03-28T02:40:32.546Z,75.30
2023-03-28T02:41:52.539Z,74.64
2023-03-28T02:43:10.073Z,74.28
2023-03-28T02:44:38.905Z,74.15
2023-03-28T02:45:55.751Z,75.48
2023-03-28T02:47:13.056Z,74.84
2023-03-28T02:48:17.862Z,73.73
2023-03-28T02:49:29.934Z,73.93
2023-03-28T02:50:45.189Z,74.39
2023-03-28T02:51:51.768Z,74.49
2023-03-28T02:53:04.641Z,73.79
2023-03-28T02:54:12.182Z,72.10
2023-03-28T02:55:19.686Z,71.63
2023-03-28T02:56:38.816Z,72.08
2023-03-28T02:57:54.001Z,72.50
2023-03-28T02:59:04.131Z,72.45
2023-03-28T03:00:13.950Z,73.66
2023-03-28T03:01:16.132Z,73.42
2023-03-28T03:02:21.849Z,73.38
2023-03-28T03:03:24.213Z,72.01
2023-03-28T03:04:26.188Z,71.62
2023-03-28T03:05:28.150Z,71.17
2023-03-28T03:06:30.166Z,72.29
2023-03-28T03:07:32.854Z,73.07
2023-03-28T03:08:35.015Z,71.65
2023-03-28T03:09:36.979Z,71.96
2023-03-28T03:10:38.992Z,70.83
2023-03-28T03:11:41.078Z,70.75
2023-03-28T03:12:43.751Z,68.12
2023-03-28T03:13:45.892Z,68.80
2023-03-28T03:14:54.990Z,70.03
2023-03-28T03:15:57.109Z,70.83
2023-03-28T03:16:59.596Z,72.16
2023-03-28T03:18:01.562Z,70.97
2023-03-28T03:19:03.607Z,70.58
2023-03-28T03:20:07.640Z,70.29
2023-03-28T03:21:09.689Z,69.74
2023-03-28T03:22:11.948Z,70.32
2023-03-28T03:23:23.228Z,69.20
2023-03-28T03:24:28.777Z,69.25
2023-03-28T03:25:31.524Z,69.07
2023-03-28T03:26:33.521Z,69.80
2023-03-28T03:27:37.534Z,69.84
2023-03-28T03:28:39.967Z,69.30
2023-03-28T03:29:41.851Z,69.38
2023-03-28T03:30:43.997Z,69.50
2023-03-28T03:31:46.568Z,68.67
2023-03-28T03:32:48.615Z,68.68
2023-03-28T03:33:50.708Z,66.58
2023-03-28T03:34:52.893Z,66.02
2023-03-28T03:35:54.932Z,67.31
2023-03-28T03:36:56.871Z,65.46
2023-03-28T03:37:59.001Z,67.01
2023-03-28T03:39:01.105Z,66.62
2023-03-28T03:40:06.037Z,67.44
2023-03-28T03:41:08.024Z,68.17
2023-03-28T03:42:11.196Z,67.90
2023-03-28T03:43:13.183Z,68.03
2023-03-28T03:44:15.211Z,69.19
2023-03-28T03:45:17.605Z,67.97
2023-03-28T03:46:20.112Z,69.11
2023-03-28T03:47:21.999Z,69.36
2023-03-28T03:48:23.994Z,68.90
2023-03-28T03:49:26.028Z,68.45
2023-03-28T03:50:28.019Z,68.51
2023-03-28T03:51:30.037Z,68.88
2023-03-28T03:52:32.056Z,67.94
2023-03-28T03:53:35.614Z,68.30
2023-03-28T03:54:38.305Z,63.42
2023-03-28T03:55:41.454Z,64.08
2023-03-28T03:56:43.388Z,65.33
2023-03-28T03:57:45.727Z,65.47
2023-03-28T03:58:47.720Z,66.80
2023-03-28T03:59:49.817Z,67.39
2023-03-28T04:00:52.370Z,68.46
2023-03-28T04:01:56.036Z,68.29
2023-03-28T04:02:58.329Z,68.81
2023-03-28T04:04:00.444Z,67.89
2023-03-28T04:05:02.587Z,68.41
2023-03-28T04:06:05.434Z,67.81
2023-03-28T04:07:07.609Z,67.51
2023-03-28T04:08:09.617Z,67.75
2023-03-28T04:09:11.891Z,67.98
2023-03-28T04:10:13.908Z,67.83
2023-03-28T04:11:16.050Z,66.25
2023-03-28T04:12:18.892Z,67.68
2023-03-28T04:13:21.146Z,67.60
2023-03-28T04:14:23.247Z,66.67
2023-03-28T04:15:25.369Z,66.08
2023-03-28T04:16:27.748Z,64.62
2023-03-28T04:17:44.287Z,64.90
2023-03-28T04:18:51.101Z,66.92
2023-03-28T04:19:53.264Z,67.18
2023-03-28T04:20:58.139Z,68.06
2023-03-28T04:22:00.165Z,67.65
2023-03-28T04:23:02.276Z,67.54
2023-03-28T04:24:04.645Z,67.72
2023-03-28T04:25:07.389Z,68.07
2023-03-28T04:26:10.134Z,68.48
2023-03-28T04:27:12.446Z,68.83
2023-03-28T04:28:16.455Z,69.00
2023-03-28T04:29:18.499Z,68.59
2023-03-28T04:30:21.856Z,68.41
2023-03-28T04:31:29.879Z,69.43
2023-03-28T04:32:36.215Z,67.92
2023-03-28T04:33:38.155Z,68.76
2023-03-28T04:34:40.200Z,69.34
2023-03-28T04:35:42.369Z,68.89
2023-03-28T04:36:45.300Z,69.59
2023-03-28T04:37:47.676Z,69.78
2023-03-28T04:38:49.478Z,70.17
2023-03-28T04:39:54.365Z,70.09
2023-03-28T04:40:58.303Z,69.85
2023-03-28T04:42:02.275Z,68.19
2023-03-28T04:43:04.343Z,68.74
2023-03-28T04:44:06.602Z,68.26
2023-03-28T04:45:09.693Z,69.55
2023-03-28T04:46:11.846Z,69.88
2023-03-28T04:47:14.081Z,68.55
2023-03-28T04:48:16.198Z,69.25
2023-03-28T04:49:18.391Z,68.44
2023-03-28T04:50:20.559Z,68.29
2023-03-28T04:51:22.844Z,67.96
2023-03-28T04:52:25.606Z,68.10
2023-03-28T04:53:27.751Z,67.59
2023-03-28T04:54:29.770Z,67.50
2023-03-28T04:55:31.824Z,68.60
2023-03-28T04:56:33.821Z,68.60
2023-03-28T04:57:38.483Z,68.43
2023-03-28T04:58:41.900Z,67.49
2023-03-28T04:59:44.486Z,67.64
2023-03-28T05:00:46.837Z,67.97
2023-03-28T05:01:51.803Z,69.07
2023-03-28T05:03:00.430Z,68.58
2023-03-28T05:04:02.505Z,69.89
2023-03-28T05:05:04.753Z,69.72
2023-03-28T05:06:07.794Z,69.86
2023-03-28T05:07:10.027Z,68.87
2023-03-28T05:08:16.716Z,69.09
2023-03-28T05:09:18.963Z,68.54
2023-03-28T05:10:20.981Z,69.07
2023-03-28T05:11:22.917Z,68.98
2023-03-28T05:12:24.896Z,68.68
2023-03-28T05:13:27.218Z,68.39
2023-03-28T05:14:29.181Z,68.18
2023-03-28T05:15:31.480Z,68.31
2023-03-28T05:16:33.597Z,68.78
2023-03-28T05:17:35.587Z,68.64
2023-03-28T05:18:37.660Z,67.82
2023-03-28T05:19:39.734Z,67.96
2023-03-28T05:20:42.282Z,66.95
2023-03-28T05:21:44.264Z,67.75
2023-03-28T05:22:46.432Z,67.73
2023-03-28T05:23:52.189Z,68.29
2023-03-28T05:24:54.823Z,68.98
2023-03-28T05:25:59.210Z,68.75
2023-03-28T05:27:01.202Z,68.66
2023-03-28T05:28:04.914Z,68.39
2023-03-28T05:29:06.964Z,69.12
2023-03-28T05:30:10.599Z,69.54
2023-03-28T05:31:13.206Z,69.31
2023-03-28T05:32:15.167Z,68.55
2023-03-28T05:33:18.084Z,67.67
2023-03-28T05:34:20.175Z,68.30
2023-03-28T05:35:22.342Z,68.03
2023-03-28T05:36:24.644Z,67.73
2023-03-28T05:37:28.636Z,67.57
2023-03-28T05:38:33.622Z,67.53
2023-03-28T05:39:36.095Z,66.64
2023-03-28T05:40:37.938Z,67.94
2023-03-28T05:41:39.910Z,67.61
2023-03-28T05:42:42.051Z,67.42
2023-03-28T05:43:44.121Z,66.24
2023-03-28T05:44:46.294Z,66.42
2023-03-28T05:45:48.345Z,66.45
2023-03-28T05:46:50.368Z,67.22
2023-03-28T05:47:55.948Z,66.15
2023-03-28T05:48:58.026Z,65.25
2023-03-28T05:50:00.110Z,66.32
2023-03-28T05:51:02.349Z,65.36
2023-03-28T05:52:04.464Z,65.22
2023-03-28T05:53:07.104Z,64.13
2023-03-28T05:54:09.053Z,64.53
2023-03-28T05:55:11.163Z,64.23
2023-03-28T05:56:13.272Z,64.97
2023-03-28T05:57:15.292Z,65.72
2023-03-28T05:58:17.772Z,63.87
2023-03-28T05:59:20.370Z,64.76
2023-03-28T06:00:23.730Z,65.52
2023-03-28T06:01:29.073Z,65.30
2023-03-28T06:02:33.784Z,64.76
2023-03-28T06:03:40.537Z,65.66
2023-03-28T06:04:43.863Z,65.98
2023-03-28T06:05:46.229Z,66.14
2023-03-28T06:06:49.336Z,65.65
2023-03-28T06:07:51.470Z,65.43
2023-03-28T06:08:53.417Z,64.80
2023-03-28T06:09:55.513Z,66.07
2023-03-28T06:11:02.677Z,66.25
2023-03-28T06:12:06.367Z,67.16
2023-03-28T06:13:08.291Z,62.67
2023-03-28T06:14:10.879Z,65.00
2023-03-28T06:15:12.998Z,65.91
2023-03-28T06:16:15.127Z,66.08
2023-03-28T06:17:17.383Z,64.49
2023-03-28T06:18:19.446Z,64.09
2023-03-28T06:19:21.583Z,65.07
2023-03-28T06:20:23.960Z,65.43
2023-03-28T06:21:26.108Z,64.11
2023-03-28T06:22:28.235Z,63.41
2023-03-28T06:23:30.237Z,64.00
2023-03-28T06:24:32.291Z,64.22
2023-03-28T06:25:34.297Z,63.09
2023-03-28T06:26:36.756Z,62.38
2023-03-28T06:27:38.658Z,62.16
2023-03-28T06:28:40.786Z,62.50
2023-03-28T06:29:42.742Z,61.21
2023-03-28T06:30:49.276Z,62.54
2023-03-28T06:31:51.514Z,63.21
2023-03-28T06:32:53.587Z,61.38
2023-03-28T06:33:55.684Z,61.52
2023-03-28T06:34:57.614Z,61.94
2023-03-28T06:35:59.681Z,62.87
2023-03-28T06:37:02.296Z,62.53
2023-03-28T06:38:04.342Z,63.67
2023-03-28T06:39:06.438Z,61.42
2023-03-28T06:40:09.763Z,61.93
2023-03-28T06:41:12.022Z,63.89
2023-03-28T06:42:14.178Z,62.30
2023-03-28T06:43:16.289Z,63.00
2023-03-28T06:44:18.330Z,61.37
2023-03-28T06:45:20.422Z,62.55
2023-03-28T06:46:22.557Z,63.05
2023-03-28T06:47:24.812Z,63.83
2023-03-28T06:48:33.108Z,61.25
2023-03-28T06:49:36.756Z,62.39
2023-03-28T06:50:38.571Z,62.35
2023-03-28T06:51:40.666Z,62.47
2023-03-28T06:52:42.703Z,64.11
2023-03-28T06:53:44.620Z,64.44
2023-03-28T06:54:48.453Z,63.28
2023-03-28T06:55:51.510Z,62.95
2023-03-28T06:56:53.549Z,63.68
2023-03-28T06:57:55.687Z,64.30
2023-03-28T06:58:57.761Z,63.22
2023-03-28T06:59:59.774Z,62.16
2023-03-28T07:01:02.573Z,62.87
2023-03-28T07:02:05.081Z,63.11
2023-03-28T07:03:07.178Z,62.62
2023-03-28T07:04:09.465Z,62.36
2023-03-28T07:05:11.794Z,62.66
2023-03-28T07:06:13.912Z,62.21
2023-03-28T07:07:16.088Z,60.73
2023-03-28T07:08:18.570Z,58.63
2023-03-28T07:09:20.474Z,59.34
2023-03-28T07:10:23.233Z,60.58
2023-03-28T07:11:25.307Z,60.39
2023-03-28T07:12:27.444Z,60.32
2023-03-28T07:13:29.623Z,60.58
2023-03-28T07:14:31.774Z,61.81
2023-03-28T07:15:34.164Z,61.30
2023-03-28T07:16:36.166Z,61.27
2023-03-28T07:17:38.376Z,62.55
2023-03-28T07:18:41.971Z,61.07
2023-03-28T07:19:45.861Z,62.12
2023-03-28T07:20:54.837Z,61.32
2023-03-28T07:22:03.789Z,61.14
2023-03-28T07:23:06.150Z,60.53
2023-03-28T07:24:08.528Z,60.88
2023-03-28T07:25:10.853Z,60.73
2023-03-28T07:26:15.013Z,60.47
2023-03-28T07:27:17.341Z,61.37
2023-03-28T07:28:19.613Z,62.05
2023-03-28T07:29:21.918Z,61.46
2023-03-28T07:30:23.968Z,59.49
2023-03-28T07:31:26.046Z,60.28
2023-03-28T07:32:38.733Z,62.17
2023-03-28T07:33:45.132Z,59.77
2023-03-28T07:34:47.184Z,55.76
2023-03-28T07:35:49.354Z,57.40
2023-03-28T07:36:52.111Z,57.99
2023-03-28T07:37:54.277Z,59.58
2023-03-28T07:38:56.476Z,59.46
2023-03-28T07:39:58.613Z,59.79
2023-03-28T07:41:01.881Z,58.71
2023-03-28T07:42:04.256Z,60.16
2023-03-28T07:43:06.223Z,58.50
2023-03-28T07:44:08.495Z,59.96
2023-03-28T07:45:10.886Z,60.10
2023-03-28T07:46:14.592Z,60.59
2023-03-28T07:47:18.256Z,60.10
2023-03-28T07:48:20.062Z,61.13
2023-03-28T07:49:22.062Z,60.05
2023-03-28T07:50:24.942Z,60.09
2023-03-28T07:51:27.202Z,56.22
2023-03-28T07:52:29.856Z,57.00
2023-03-28T07:53:32.151Z,58.36
2023-03-28T07:54:34.744Z,59.61
2023-03-28T07:56:45.311Z,60.83
2023-03-28T07:57:47.290Z,61.01
2023-03-28T07:58:49.393Z,61.90
2023-03-28T07:59:51.653Z,62.00
2023-03-28T08:00:53.924Z,62.15
2023-03-28T08:01:56.267Z,62.08
2023-03-28T08:02:58.455Z,64.16
2023-03-28T08:04:01.230Z,64.72
2023-03-28T08:05:03.568Z,64.78
2023-03-28T08:06:20.053Z,65.42
2023-03-28T08:07:30.198Z,66.13
2023-03-28T08:08:33.205Z,65.87
2023-03-28T08:09:35.310Z,66.94
2023-03-28T08:10:37.462Z,66.42
2023-03-28T08:11:40.708Z,66.43
2023-03-28T08:12:43.090Z,65.75
2023-03-28T08:13:44.991Z,65.61
2023-03-28T08:14:47.084Z,65.07
2023-03-28T08:15:54.396Z,66.22
2023-03-28T08:16:57.031Z,66.91
2023-03-28T08:17:58.934Z,66.31
2023-03-28T08:19:10.816Z,67.05
2023-03-28T08:20:14.203Z,68.32
2023-03-28T08:21:16.365Z,68.80
2023-03-28T08:22:18.375Z,68.03
2023-03-28T08:23:20.901Z,69.41
2023-03-28T08:24:34.960Z,70.04
2023-03-28T08:25:37.975Z,69.98
2023-03-28T08:26:39.965Z,69.76
2023-03-28T08:27:42.004Z,70.79
2023-03-28T08:28:44.235Z,70.41
2023-03-28T08:29:46.249Z,70.06
2023-03-28T08:30:48.693Z,69.74
2023-03-28T08:31:50.567Z,70.62
2023-03-28T08:32:52.663Z,69.62
2023-03-28T08:33:56.829Z,69.93
2023-03-28T08:34:58.846Z,69.31
2023-03-28T08:36:01.062Z,69.29
2023-03-28T08:37:03.987Z,68.38
2023-03-28T08:38:10.466Z,64.73
2023-03-28T08:39:13.465Z,63.33
2023-03-28T08:40:19.367Z,61.58
2023-03-28T08:41:45.100Z,61.86
2023-03-28T08:43:09.689Z,63.61
2023-03-28T08:44:48.531Z,63.50
2023-03-28T08:46:00.294Z,61.71
2023-03-28T08:47:14.125Z,62.84
2023-03-28T08:48:27.585Z,62.02
2023-03-28T08:49:34.686Z,62.64
2023-03-28T08:50:50.830Z,62.25
2023-03-28T08:51:58.745Z,62.70
2023-03-28T08:53:02.278Z,61.87
2023-03-28T08:54:43.684Z,60.95
2023-03-28T08:55:48.113Z,61.02
2023-03-28T08:56:53.069Z,58.71
2023-03-28T08:57:56.384Z,61.50
2023-03-28T08:59:07.705Z,59.26
2023-03-28T09:00:15.648Z,58.77
2023-03-28T09:01:22.368Z,59.32
2023-03-28T09:02:27.805Z,58.89
2023-03-28T09:03:33.451Z,60.22
2023-03-28T09:04:36.384Z,60.14
2023-03-28T09:06:00.983Z,57.48
2023-03-28T09:07:14.823Z,52.40
2023-03-28T09:08:35.036Z,52.51
2023-03-28T09:09:53.551Z,55.43
2023-03-28T09:11:07.697Z,55.79
2023-03-28T09:12:18.304Z,56.90
2023-03-28T09:13:48.213Z,56.76
2023-03-28T09:15:06.656Z,57.51
2023-03-28T09:16:25.854Z,56.91
2023-03-28T09:17:46.209Z,56.76
2023-03-28T09:19:06.377Z,57.64
2023-03-28T09:20:19.852Z,56.98
2023-03-28T09:21:21.812Z,56.78
2023-03-28T09:22:37.301Z,57.17
2023-03-28T09:24:15.890Z,54.50
2023-03-28T09:25:22.437Z,55.92
2023-03-28T09:26:30.313Z,56.14
2023-03-28T09:27:44.029Z,56.79
2023-03-28T09:28:52.908Z,56.42
2023-03-28T09:29:58.809Z,58.15
2023-03-28T09:31:01.197Z,59.56
2023-03-28T09:32:21.392Z,59.92
2023-03-28T09:33:46.798Z,55.90
2023-03-28T09:34:51.491Z,59.25
2023-03-28T09:35:57.484Z,58.29
2023-03-28T09:37:11.568Z,56.43
2023-03-28T09:38:26.027Z,58.20
2023-03-28T09:39:54.987Z,58.29
2023-03-28T09:41:01.117Z,59.93
2023-03-28T09:42:09.634Z,59.62
2023-03-28T09:43:14.588Z,60.52
2023-03-28T09:44:21.910Z,61.72
2023-03-28T09:45:36.493Z,58.28
2023-03-28T09:46:47.427Z,59.50
2023-03-28T09:47:49.770Z,59.97
2023-03-28T09:48:51.928Z,60.96
2023-03-28T09:50:02.241Z,60.22
2023-03-28T09:51:19.718Z,59.43
2023-03-28T09:52:22.137Z,60.15
2023-03-28T09:53:29.568Z,59.90
2023-03-28T09:54:36.247Z,58.85
2023-03-28T09:55:38.327Z,59.56
2023-03-28T09:56:43.505Z,59.27
2023-03-28T09:58:06.338Z,58.55
2023-03-28T09:59:21.923Z,58.06
2023-03-28T10:00:23.956Z,58.66
2023-03-28T10:01:34.527Z,57.76
2023-03-28T10:02:36.761Z,58.53
2023-03-28T10:03:39.180Z,58.28
2023-03-28T10:04:41.296Z,57.83
2023-03-28T10:05:45.355Z,57.37
2023-03-28T10:06:48.618Z,57.26
2023-03-28T10:07:50.702Z,57.47
2023-03-28T10:08:52.655Z,55.35
2023-03-28T10:09:57.417Z,56.54
2023-03-28T10:11:13.960Z,56.97
2023-03-28T10:12:23.434Z,57.20
2023-03-28T10:13:26.818Z,56.82
2023-03-28T10:14:37.716Z,57.54
2023-03-28T10:15:41.861Z,56.64
2023-03-28T10:16:45.854Z,56.93
2023-03-28T10:17:48.991Z,58.11
2023-03-28T10:18:51.322Z,58.44
2023-03-28T10:19:58.982Z,56.43
2023-03-28T10:21:18.830Z,55.76
2023-03-28T10:22:28.377Z,55.08
2023-03-28T10:23:30.626Z,56.45
2023-03-28T10:24:33.132Z,51.61
2023-03-28T10:25:43.437Z,52.66
2023-03-28T10:26:45.463Z,53.25
2023-03-28T10:27:49.560Z,53.67
2023-03-28T10:28:54.808Z,54.22
2023-03-28T10:29:59.333Z,51.64
2023-03-28T10:31:03.065Z,52.85
2023-03-28T10:32:06.711Z,55.42
2023-03-28T10:33:17.984Z,55.82
2023-03-28T10:34:32.126Z,54.58
2023-03-28T10:35:34.707Z,54.84
2023-03-28T10:36:42.586Z,56.66
2023-03-28T10:37:47.208Z,56.23
2023-03-28T10:38:50.210Z,54.36
2023-03-28T10:40:00.759Z,51.78
2023-03-28T10:41:07.905Z,51.82
2023-03-28T10:42:11.921Z,52.55
2023-03-28T10:43:15.492Z,50.21
2023-03-28T10:44:26.324Z,51.84
2023-03-28T10:45:34.562Z,52.68
2023-03-28T10:46:38.255Z,53.11
2023-03-28T10:47:41.901Z,53.08
2023-03-28T10:48:58.464Z,52.26
2023-03-28T10:50:01.299Z,52.73
2023-03-28T10:51:08.777Z,53.32
2023-03-28T10:52:28.811Z,50.72
2023-03-28T10:53:49.582Z,51.36
2023-03-28T10:55:10.037Z,52.61
2023-03-28T10:56:30.696Z,51.65
2023-03-28T10:57:32.652Z,52.40
2023-03-28T10:59:09.979Z,52.21
2023-03-28T11:00:27.132Z,53.38
2023-03-28T11:01:44.643Z,52.29
2023-03-28T11:03:10.911Z,51.48
2023-03-28T11:04:34.014Z,52.24
2023-03-28T11:06:05.819Z,51.96
2023-03-28T11:07:42.590Z,49.93
2023-03-28T11:09:28.245Z,52.04
2023-03-28T11:10:48.237Z,51.32
2023-03-28T11:12:23.084Z,51.03
2023-03-28T11:13:48.978Z,50.88
2023-03-28T11:15:12.450Z,53.76
2023-03-28T11:16:39.469Z,51.70
2023-03-28T11:17:56.801Z,49.25
2023-03-28T11:19:01.535Z,52.06
2023-03-28T11:20:31.329Z,52.99
2023-03-28T11:22:17.826Z,50.43
2023-03-28T11:23:38.749Z,50.84
2023-03-28T11:24:54.728Z,50.42
2023-03-28T11:26:12.762Z,53.10
2023-03-28T11:27:31.360Z,53.24
2023-03-28T11:29:16.881Z,52.71
2023-03-28T11:30:23.342Z,53.51
2023-03-28T11:31:36.260Z,55.14
2023-03-28T11:32:41.712Z,53.52
2023-03-28T11:34:00.700Z,52.86
2023-03-28T11:35:17.952Z,51.98
2023-03-28T11:36:48.298Z,52.39
2023-03-28T11:37:56.092Z,48.19
2023-03-28T11:39:24.537Z,49.71
2023-03-28T11:40:47.207Z,46.49
2023-03-28T11:41:51.209Z,46.26
2023-03-28T11:43:00.870Z,46.81
2023-03-28T11:44:05.712Z,48.98
2023-03-28T11:45:41.881Z,46.58
2023-03-28T11:46:56.858Z,47.73
2023-03-28T11:48:06.154Z,47.63
2023-03-28T11:49:24.724Z,45.41
2023-03-28T11:50:35.775Z,47.49
2023-03-28T11:51:58.636Z,46.38
2023-03-28T11:53:36.165Z,44.20
2023-03-28T11:54:47.212Z,46.14
2023-03-28T11:56:00.239Z,46.06
2023-03-28T11:57:08.016Z,43.71
2023-03-28T11:58:26.437Z,44.91
2023-03-28T11:59:50.927Z,44.66
2023-03-28T12:01:05.288Z,47.28
2023-03-28T12:02:28.850Z,46.21
2023-03-28T12:03:34.451Z,44.13
2023-03-28T12:04:51.342Z,45.95
2023-03-28T12:06:08.953Z,48.09
2023-03-28T12:07:41.428Z,43.13
2023-03-28T12:08:57.256Z,43.88
2023-03-28T12:10:10.293Z,47.52
2023-03-28T12:11:16.203Z,47.40
2023-03-28T12:12:34.386Z,47.02
2023-03-28T12:13:45.886Z,43.57
2023-03-28T12:14:52.017Z,43.74
2023-03-28T12:15:59.870Z,46.36
2023-03-28T12:17:11.999Z,47.44
2023-03-28T12:18:22.471Z,46.28
2023-03-28T12:19:41.724Z,46.18
2023-03-28T12:21:00.728Z,43.64
2023-03-28T12:22:23.173Z,42.43
2023-03-28T12:23:38.059Z,44.62
2023-03-28T12:24:49.886Z,43.93
2023-03-28T12:25:58.754Z,46.42
2023-03-28T12:27:26.707Z,44.74
2023-03-28T12:28:39.787Z,46.64
2023-03-28T12:30:00.780Z,46.89
2023-03-28T12:31:24.138Z,46.92
2023-03-28T12:32:30.013Z,44.97
2023-03-28T12:33:59.224Z,43.22
2023-03-28T12:35:22.507Z,46.35
2023-03-28T12:36:30.513Z,45.34
2023-03-28T12:37:56.721Z,44.21
2023-03-28T12:39:41.192Z,43.65
2023-03-28T12:41:01.476Z,47.22
2023-03-28T12:42:06.959Z,43.63
2023-03-28T12:43:13.099Z,44.00
2023-03-28T12:44:24.836Z,43.10
2023-03-28T12:45:32.350Z,42.67
2023-03-28T12:46:52.270Z,46.44
2023-03-28T12:48:00.339Z,45.25
2023-03-28T12:49:15.322Z,44.96
2023-03-28T12:50:29.787Z,45.98
2023-03-28T12:51:39.757Z,43.41
2023-03-28T12:52:46.285Z,42.85
2023-03-28T12:54:02.049Z,44.15
2023-03-28T12:55:28.625Z,45.49
2023-03-28T12:56:31.794Z,45.85
2023-03-28T12:57:46.159Z,48.41
2023-03-28T12:58:49.089Z,47.27
2023-03-28T13:00:03.318Z,48.68
2023-03-28T13:01:22.217Z,44.73
2023-03-28T13:02:41.398Z,46.44
2023-03-28T13:04:02.061Z,47.87
2023-03-28T13:05:22.622Z,47.80
2023-03-28T13:06:31.048Z,44.75
2023-03-28T13:08:29.916Z,44.37
2023-03-28T13:09:58.374Z,46.73
2023-03-28T13:11:20.555Z,47.21
2023-03-28T13:12:32.229Z,47.31
2023-03-28T13:13:44.508Z,47.28
2023-03-28T13:15:24.163Z,46.76
2023-03-28T13:16:38.028Z,49.68
2023-03-28T13:18:07.268Z,45.34
2023-03-28T13:19:17.982Z,45.58
2023-03-28T13:20:26.102Z,45.35
2023-03-28T13:21:43.155Z,45.24
2023-03-28T13:22:58.705Z,45.39
2023-03-28T13:24:00.920Z,44.88
2023-03-28T13:25:27.688Z,44.79
2023-03-28T13:27:08.352Z,47.18
2023-03-28T13:28:13.314Z,46.20
2023-03-28T13:29:15.467Z,46.68
2023-03-28T13:30:26.439Z,43.39
2023-03-28T13:31:28.700Z,46.20
2023-03-28T13:32:37.562Z,45.83
2023-03-28T13:33:48.036Z,47.49
2023-03-28T13:35:11.358Z,47.89
2023-03-28T13:36:19.598Z,48.35
2023-03-28T13:37:25.548Z,50.67
2023-03-28T13:38:27.457Z,49.82
2023-03-28T13:39:29.656Z,50.36
2023-03-28T13:40:44.339Z,48.64
2023-03-28T13:41:46.361Z,48.76
2023-03-28T13:42:58.894Z,47.81
2023-03-28T13:44:04.083Z,48.14
2023-03-28T13:45:20.890Z,48.53
2023-03-28T13:46:26.460Z,47.85
2023-03-28T13:47:36.737Z,49.21
2023-03-28T13:49:01.817Z,46.08
2023-03-28T13:50:29.322Z,46.49
2023-03-28T13:51:38.037Z,46.46
2023-03-28T13:52:40.348Z,47.73
2023-03-28T13:53:48.045Z,46.25
2023-03-28T13:54:56.455Z,46.78
2023-03-28T13:56:30.312Z,45.46
2023-03-28T13:57:32.592Z,44.96
2023-03-28T13:58:36.278Z,46.06
2023-03-28T13:59:59.798Z,44.65
2023-03-28T14:01:15.617Z,45.09
2023-03-28T14:02:32.089Z,46.23
2023-03-28T14:03:36.838Z,47.14
2023-03-28T14:04:38.995Z,47.37
2023-03-28T14:05:45.909Z,47.56
2023-03-28T14:06:48.822Z,46.69
2023-03-28T14:07:53.243Z,45.87
2023-03-28T14:08:59.339Z,47.16
2023-03-28T14:10:03.346Z,46.43
2023-03-28T14:11:05.612Z,47.78
2023-03-28T14:12:12.329Z,46.64
2023-03-28T14:13:18.688Z,46.12
2023-03-28T14:14:32.560Z,47.32
2023-03-28T14:15:37.412Z,48.17
2023-03-28T14:16:42.317Z,46.41
2023-03-28T14:17:45.057Z,46.53
2023-03-28T14:18:51.854Z,46.23
2023-03-28T14:19:58.459Z,43.11
2023-03-28T14:21:01.958Z,45.51
2023-03-28T14:22:07.931Z,45.20
2023-03-28T14:23:29.607Z,43.84
2023-03-28T14:24:31.659Z,45.46
2023-03-28T14:25:33.739Z,41.88
2023-03-28T14:26:37.336Z,42.50
2023-03-28T14:27:46.150Z,43.75
2023-03-28T14:28:50.844Z,45.92
2023-03-28T14:29:57.668Z,44.91
2023-03-28T14:31:00.221Z,46.45
2023-03-28T14:32:07.357Z,43.48
2023-03-28T14:33:14.403Z,42.92
2023-03-28T14:34:27.327Z,43.51
2023-03-28T14:35:33.138Z,45.29
2023-03-28T14:36:59.639Z,45.24
2023-03-28T14:38:04.693Z,46.79
2023-03-28T14:39:13.815Z,48.34
2023-03-28T14:40:20.840Z,48.37
2023-03-28T14:41:28.040Z,42.49